createdAt,value
2022-11-30T00:01:18.745Z,11.80
2022-11-30T00:03:46.312Z,8.88
2022-11-30T00:06:15.348Z,8.70
2022-11-30T00:08:42.873Z,9.50
2022-11-30T00:11:09.528Z,9.18
2022-11-30T00:13:36.300Z,9.23
2022-11-30T00:16:02.863Z,9.65
2022-11-30T00:18:29.401Z,8.17
2022-11-30T00:20:59.743Z,8.75
2022-11-30T00:23:26.484Z,10.40
2022-11-30T00:25:53.022Z,9.05
2022-11-30T00:28:19.542Z,9.37
2022-11-30T00:30:46.042Z,10.63
2022-11-30T00:33:12.610Z,9.00
2022-11-30T00:35:39.110Z,10.70
2022-11-30T00:38:05.673Z,8.37
2022-11-30T00:40:32.155Z,8.45
2022-11-30T00:42:58.806Z,10.13
2022-11-30T00:45:25.365Z,10.75
2022-11-30T00:47:51.881Z,9.87
2022-11-30T00:50:18.375Z,9.70
2022-11-30T00:52:44.862Z,9.23
2022-11-30T00:55:11.430Z,10.67
2022-11-30T00:57:38.139Z,8.40
2022-11-30T01:00:05.100Z,8.98
2022-11-30T01:02:31.651Z,8.98
2022-11-30T01:04:58.204Z,9.63
2022-11-30T01:07:24.784Z,9.95
2022-11-30T01:09:51.335Z,10.18
2022-11-30T01:12:17.898Z,11.88
2022-11-30T01:14:44.813Z,10.87
2022-11-30T01:17:11.723Z,9.77
2022-11-30T01:19:38.305Z,9.98
2022-11-30T01:22:04.830Z,9.85
2022-11-30T01:24:31.405Z,9.95
2022-11-30T01:26:57.925Z,8.70
2022-11-30T01:29:24.431Z,11.93
2022-11-30T01:31:50.899Z,10.23
2022-11-30T01:34:17.442Z,10.05
2022-11-30T01:36:44.690Z,10.30
2022-11-30T01:39:11.434Z,9.45
2022-11-30T01:41:38.268Z,9.13
2022-11-30T01:44:04.725Z,9.68
2022-11-30T01:46:34.123Z,9.13
2022-11-30T01:49:06.592Z,10.50
2022-11-30T01:52:02.785Z,8.85
2022-11-30T01:54:55.066Z,9.10
2022-11-30T01:58:02.441Z,9.80
2022-11-30T02:00:29.084Z,10.10
2022-11-30T02:02:55.669Z,8.80
2022-11-30T02:05:23.262Z,12.85
2022-11-30T02:07:50.075Z,16.98
2022-11-30T02:10:23.855Z,20.45
2022-11-30T02:12:50.330Z,21.15
2022-11-30T02:15:22.597Z,13.77
2022-11-30T02:18:14.686Z,20.15
2022-11-30T02:20:54.431Z,22.48
2022-11-30T02:23:49.230Z,21.55
2022-11-30T02:26:24.806Z,24.70
2022-11-30T02:29:06.681Z,25.35
2022-11-30T02:31:51.447Z,24.67
2022-11-30T02:34:21.654Z,22.75
2022-11-30T02:36:48.302Z,25.00
2022-11-30T02:39:14.937Z,17.95
2022-11-30T02:41:41.534Z,24.02
2022-11-30T02:44:11.417Z,25.92
2022-11-30T02:46:56.013Z,23.23
2022-11-30T02:49:58.472Z,22.58
2022-11-30T02:52:28.093Z,24.10
2022-11-30T02:55:04.556Z,22.42
2022-11-30T02:57:31.068Z,22.08
2022-11-30T02:59:58.965Z,23.93
2022-11-30T03:02:25.587Z,22.88
2022-11-30T03:04:52.149Z,28.98
2022-11-30T03:07:18.961Z,23.23
2022-11-30T03:09:45.564Z,23.10
2022-11-30T03:12:12.125Z,18.73
2022-11-30T03:14:38.600Z,22.75
2022-11-30T03:17:07.074Z,25.00
2022-11-30T03:19:34.574Z,26.02
2022-11-30T03:22:01.103Z,21.73
2022-11-30T03:24:27.726Z,28.87
2022-11-30T03:26:54.232Z,18.17
2022-11-30T03:29:20.759Z,27.70
2022-11-30T03:31:47.499Z,24.33
2022-11-30T03:34:14.153Z,23.55
2022-11-30T03:36:40.711Z,23.67
2022-11-30T03:39:07.239Z,24.58
2022-11-30T03:41:33.765Z,25.20
2022-11-30T03:44:00.273Z,26.58
2022-11-30T03:46:27.698Z,24.83
2022-11-30T03:51:21.168Z,23.80
2022-11-30T03:53:47.735Z,25.92
2022-11-30T03:56:14.451Z,24.20
2022-11-30T03:58:41.392Z,24.08
2022-11-30T04:01:11.424Z,24.83
2022-11-30T04:03:38.658Z,24.52
2022-11-30T04:06:06.961Z,27.25
2022-11-30T04:08:34.552Z,25.90
2022-11-30T04:11:02.350Z,26.92
2022-11-30T04:13:30.660Z,33.38
2022-11-30T04:15:57.645Z,28.02
2022-11-30T04:18:25.994Z,30.25
2022-11-30T04:20:54.343Z,23.90
2022-11-30T04:23:21.576Z,25.58
2022-11-30T04:25:48.625Z,25.77
2022-11-30T04:28:16.775Z,26.98
2022-11-30T04:30:43.936Z,29.20
2022-11-30T04:33:10.739Z,26.55
2022-11-30T04:35:43.602Z,23.85
2022-11-30T04:38:10.182Z,22.92
2022-11-30T04:40:41.081Z,27.15
2022-11-30T04:43:08.283Z,27.55
2022-11-30T04:45:35.677Z,27.90
2022-11-30T04:48:03.141Z,24.50
2022-11-30T04:50:29.797Z,23.88
2022-11-30T04:52:56.802Z,27.88
2022-11-30T04:55:24.021Z,27.25
2022-11-30T04:57:50.907Z,26.27
2022-11-30T05:00:19.480Z,30.02
2022-11-30T05:02:52.179Z,25.55
2022-11-30T05:05:19.837Z,23.13
2022-11-30T05:07:50.709Z,19.83
2022-11-30T05:10:17.829Z,26.17
2022-11-30T05:12:44.520Z,25.27
2022-11-30T05:15:11.157Z,20.50
2022-11-30T05:17:37.724Z,25.45
2022-11-30T05:20:04.729Z,25.33
2022-11-30T05:22:31.242Z,24.77
2022-11-30T05:24:57.799Z,25.47
2022-11-30T05:27:24.320Z,28.90
2022-11-30T05:29:50.921Z,26.98
2022-11-30T05:32:17.435Z,26.23
2022-11-30T05:34:50.636Z,27.57
2022-11-30T05:37:18.305Z,26.63
2022-11-30T05:39:44.955Z,26.95
2022-11-30T05:42:11.608Z,26.48
2022-11-30T05:44:38.143Z,26.50
2022-11-30T05:47:04.848Z,28.58
2022-11-30T05:49:31.445Z,31.10
2022-11-30T05:51:57.952Z,41.87
2022-11-30T05:54:24.479Z,59.60
2022-11-30T05:56:54.728Z,52.85
2022-11-30T05:59:22.148Z,37.25
2022-11-30T06:01:49.016Z,23.42
2022-11-30T06:04:15.751Z,26.80
2022-11-30T06:06:42.272Z,29.63
2022-11-30T06:09:08.869Z,34.28
2022-11-30T06:11:35.458Z,33.13
2022-11-30T06:14:02.197Z,51.72
2022-11-30T06:16:28.769Z,39.28
2022-11-30T06:18:55.444Z,42.47
2022-11-30T06:21:24.716Z,41.53
2022-11-30T06:23:52.303Z,43.15
2022-11-30T06:26:18.877Z,43.95
2022-11-30T06:28:48.471Z,40.95
2022-11-30T06:31:16.331Z,37.33
2022-11-30T06:33:43.140Z,40.25
2022-11-30T06:36:10.503Z,42.33
2022-11-30T06:41:06.764Z,50.67
2022-11-30T06:43:37.632Z,61.20
2022-11-30T06:46:05.542Z,54.03
2022-11-30T06:48:32.677Z,58.42
2022-11-30T06:51:00.406Z,56.42
2022-11-30T06:53:27.369Z,49.35
2022-11-30T06:55:53.987Z,50.42
2022-11-30T06:58:20.565Z,46.10
2022-11-30T07:00:47.619Z,45.83
2022-11-30T07:03:14.572Z,36.00
2022-11-30T07:05:45.941Z,40.10
2022-11-30T07:08:14.583Z,35.25
2022-11-30T07:10:43.095Z,44.88
2022-11-30T07:13:12.066Z,33.42
2022-11-30T07:15:40.208Z,35.28
2022-11-30T07:18:07.421Z,44.88
2022-11-30T07:20:34.335Z,33.90
2022-11-30T07:23:19.086Z,44.50
2022-11-30T07:26:15.015Z,36.22
2022-11-30T07:28:51.388Z,32.23
2022-11-30T07:31:20.872Z,29.50
2022-11-30T07:33:49.024Z,30.35
2022-11-30T07:36:17.549Z,30.73
2022-11-30T07:38:44.653Z,35.25
2022-11-30T07:41:11.277Z,62.35
2022-11-30T07:43:38.127Z,72.80
2022-11-30T07:46:05.387Z,46.08
2022-11-30T07:48:33.890Z,32.83
2022-11-30T07:51:08.881Z,28.55
2022-11-30T07:53:35.480Z,23.00
2022-11-30T07:56:11.663Z,27.08
2022-11-30T07:58:39.100Z,26.40
2022-11-30T08:03:37.581Z,32.70
2022-11-30T08:06:09.487Z,26.55
2022-11-30T08:08:41.340Z,30.00
2022-11-30T08:11:09.544Z,30.10
2022-11-30T08:13:36.359Z,32.95
2022-11-30T08:16:14.809Z,34.78
2022-11-30T08:18:42.124Z,36.92
2022-11-30T08:21:11.262Z,34.33
2022-11-30T08:23:43.428Z,25.90
2022-11-30T08:26:14.841Z,24.65
2022-11-30T08:28:43.894Z,22.00
2022-11-30T08:31:14.119Z,33.90
2022-11-30T08:33:40.687Z,22.00
2022-11-30T08:36:11.932Z,21.60
2022-11-30T08:38:39.886Z,20.42
2022-11-30T08:41:08.237Z,21.75
2022-11-30T08:43:34.805Z,55.72
2022-11-30T08:46:27.517Z,56.90
2022-11-30T08:49:12.485Z,47.55
2022-11-30T08:52:14.713Z,12.68
2022-11-30T08:54:27.436Z,5.32
2022-11-30T08:56:54.115Z,5.38
2022-11-30T08:59:20.698Z,2.72
2022-11-30T09:01:47.240Z,4.60
2022-11-30T09:04:13.787Z,3.42
2022-11-30T09:06:41.906Z,2.40
2022-11-30T09:09:08.449Z,4.13
2022-11-30T09:11:34.993Z,6.20
2022-11-30T09:14:05.010Z,4.37
2022-11-30T09:16:31.814Z,6.07
2022-11-30T09:18:58.441Z,4.45
2022-11-30T09:21:25.695Z,5.75
2022-11-30T09:23:53.112Z,2.80
2022-11-30T09:28:48.143Z,4.43
2022-11-30T09:31:17.304Z,4.28
2022-11-30T09:33:44.609Z,5.35
2022-11-30T09:36:13.506Z,6.90
2022-11-30T09:38:42.497Z,6.65
2022-11-30T09:41:33.321Z,4.28
2022-11-30T09:44:27.243Z,3.08
2022-11-30T09:47:05.689Z,7.22
2022-11-30T09:49:37.629Z,8.48
2022-11-30T09:52:09.881Z,3.67
2022-11-30T09:54:39.288Z,3.92
2022-11-30T09:57:39.227Z,4.45
2022-11-30T10:00:15.035Z,4.65
2022-11-30T10:02:42.307Z,3.78
2022-11-30T10:05:25.929Z,6.70
2022-11-30T10:08:03.375Z,3.38
2022-11-30T10:10:48.144Z,6.47
2022-11-30T10:13:52.440Z,10.93
2022-11-30T10:16:51.776Z,7.07
2022-11-30T10:19:40.117Z,3.58
2022-11-30T10:22:43.010Z,3.05
2022-11-30T10:25:26.071Z,5.60
2022-11-30T10:28:38.705Z,4.80
2022-11-30T10:31:01.524Z,4.03
2022-11-30T10:33:38.695Z,3.13
2022-11-30T10:39:04.734Z,2.90
2022-11-30T10:41:39.500Z,6.93
2022-11-30T10:44:18.634Z,4.43
2022-11-30T10:47:22.556Z,3.58
2022-11-30T10:49:51.085Z,4.80
2022-11-30T10:52:23.831Z,6.82
2022-11-30T10:54:56.880Z,5.05
2022-11-30T10:57:31.265Z,2.80
2022-11-30T11:00:00.306Z,3.80
2022-11-30T11:02:45.997Z,4.35
2022-11-30T11:05:15.959Z,4.70
2022-11-30T11:08:07.272Z,7.50
2022-11-30T11:10:40.296Z,5.80
2022-11-30T11:13:20.002Z,4.47
2022-11-30T11:16:06.675Z,2.90
2022-11-30T11:18:34.878Z,3.85
2022-11-30T11:21:06.180Z,4.53
2022-11-30T11:23:41.624Z,8.23
2022-11-30T11:26:18.075Z,3.60
2022-11-30T11:28:47.094Z,23.65
2022-11-30T11:31:42.287Z,4.82
2022-11-30T11:34:25.426Z,3.97
2022-11-30T11:37:16.483Z,3.92
2022-11-30T11:39:43.373Z,3.58
2022-11-30T11:42:22.483Z,2.38
2022-11-30T11:44:55.396Z,3.92
2022-11-30T11:47:26.516Z,3.60
2022-11-30T11:50:27.195Z,2.95
2022-11-30T11:53:15.264Z,3.90
2022-11-30T11:55:43.529Z,3.42
2022-11-30T11:58:18.569Z,50.13
2022-11-30T12:00:48.295Z,6.00
2022-11-30T12:03:28.626Z,2.80
2022-11-30T12:06:07.375Z,3.65
2022-11-30T12:09:03.350Z,2.53
2022-11-30T12:11:47.753Z,3.23
2022-11-30T12:14:18.985Z,2.88
2022-11-30T12:17:00.470Z,2.67
2022-11-30T12:19:37.485Z,3.20
2022-11-30T12:22:09.716Z,4.03
2022-11-30T12:24:54.365Z,2.90
2022-11-30T12:27:42.914Z,3.25
2022-11-30T12:30:26.283Z,3.17
2022-11-30T12:33:12.781Z,5.03
2022-11-30T12:36:09.977Z,3.72
2022-11-30T12:38:45.874Z,2.35
2022-11-30T12:41:27.696Z,3.50
2022-11-30T12:44:28.970Z,2.90
2022-11-30T12:47:08.405Z,3.08
2022-11-30T12:50:00.991Z,2.13
2022-11-30T12:52:40.134Z,2.53
2022-11-30T12:55:37.647Z,2.67
2022-11-30T12:58:49.855Z,3.55
2022-11-30T13:01:25.327Z,3.25
2022-11-30T13:04:04.541Z,2.85
2022-11-30T13:06:40.456Z,2.80
2022-11-30T13:09:22.843Z,3.97
2022-11-30T13:12:01.935Z,3.28
2022-11-30T13:14:30.501Z,3.42
2022-11-30T13:17:06.577Z,3.58
2022-11-30T13:19:44.838Z,2.67
2022-11-30T13:22:22.117Z,9.20
2022-11-30T13:24:58.792Z,2.90
2022-11-30T13:27:47.078Z,2.72
2022-11-30T13:30:20.729Z,5.20
2022-11-30T13:33:02.604Z,3.97
2022-11-30T13:35:29.315Z,6.07
2022-11-30T13:38:28.592Z,5.75
2022-11-30T13:40:55.846Z,3.40
2022-11-30T13:43:23.678Z,3.42
2022-11-30T13:46:03.024Z,3.10
2022-11-30T13:48:38.313Z,3.28
2022-11-30T13:51:05.500Z,4.00
2022-11-30T13:53:38.674Z,4.80
2022-11-30T13:56:20.284Z,4.22
2022-11-30T13:59:25.592Z,4.60
2022-11-30T14:01:54.075Z,3.33
2022-11-30T14:04:22.765Z,4.80
2022-11-30T14:06:59.391Z,5.15
2022-11-30T14:09:41.176Z,5.50
2022-11-30T14:12:32.861Z,3.25
2022-11-30T14:15:01.078Z,4.32
2022-11-30T14:17:32.917Z,2.88
2022-11-30T14:20:09.232Z,3.08
2022-11-30T14:22:40.414Z,2.57
2022-11-30T14:25:14.993Z,3.85
2022-11-30T14:27:43.623Z,3.17
2022-11-30T14:30:19.192Z,4.65
2022-11-30T14:32:51.836Z,3.17
2022-11-30T14:35:20.071Z,2.83
2022-11-30T14:37:58.382Z,3.50
2022-11-30T14:40:30.353Z,3.05
2022-11-30T14:42:58.996Z,3.97
2022-11-30T14:45:33.651Z,6.10
2022-11-30T14:48:06.455Z,3.58
2022-11-30T14:50:33.993Z,3.75
2022-11-30T14:53:23.708Z,4.30
2022-11-30T14:56:15.250Z,4.72
2022-11-30T14:59:32.669Z,6.65
2022-11-30T15:02:02.376Z,4.22
2022-11-30T15:04:30.754Z,6.93
2022-11-30T15:06:58.155Z,4.03
2022-11-30T15:11:53.993Z,5.00
2022-11-30T15:14:20.709Z,6.40
2022-11-30T15:16:57.112Z,3.75
2022-11-30T15:19:27.019Z,5.13
2022-11-30T15:21:55.391Z,4.07
2022-11-30T15:24:22.520Z,3.67
2022-11-30T15:26:57.776Z,3.58
2022-11-30T15:29:33.265Z,5.57
2022-11-30T15:32:02.434Z,5.30
2022-11-30T15:34:54.897Z,4.22
2022-11-30T15:37:34.300Z,3.30
2022-11-30T15:40:03.386Z,6.15
2022-11-30T15:42:44.358Z,3.83
2022-11-30T15:45:15.156Z,3.88
2022-11-30T15:47:41.838Z,6.15
2022-11-30T15:50:26.326Z,5.70
2022-11-30T15:52:54.869Z,3.05
2022-11-30T15:55:44.248Z,2.83
2022-11-30T15:58:25.798Z,4.22
2022-11-30T16:01:03.439Z,8.10
2022-11-30T16:03:30.193Z,3.67
2022-11-30T16:06:01.824Z,5.72
2022-11-30T16:08:28.693Z,4.93
2022-11-30T16:10:55.269Z,4.45
2022-11-30T16:13:23.304Z,8.68
2022-11-30T16:15:51.501Z,6.85
2022-11-30T16:18:19.007Z,3.67
2022-11-30T16:20:48.422Z,4.35
2022-11-30T16:23:16.146Z,3.63
2022-11-30T16:25:44.312Z,3.10
2022-11-30T16:28:12.703Z,2.67
2022-11-30T16:30:41.142Z,4.88
2022-11-30T16:33:36.765Z,3.33
2022-11-30T16:36:17.904Z,3.75
2022-11-30T16:38:48.472Z,3.67
2022-11-30T16:41:27.026Z,4.18
2022-11-30T16:43:55.465Z,3.05
2022-11-30T16:46:25.030Z,4.43
2022-11-30T16:48:51.995Z,2.65
2022-11-30T16:51:27.640Z,4.82
2022-11-30T16:53:55.026Z,4.15
2022-11-30T16:58:48.489Z,2.50
2022-11-30T17:01:35.468Z,3.17
2022-11-30T17:04:12.591Z,4.38
2022-11-30T17:06:39.148Z,3.37
2022-11-30T17:09:06.024Z,4.13
2022-11-30T17:11:36.779Z,3.45
2022-11-30T17:14:04.002Z,2.42
2022-11-30T17:16:30.626Z,2.35
2022-11-30T17:18:57.323Z,5.53
2022-11-30T17:21:35.446Z,4.43
2022-11-30T17:24:02.805Z,8.23
2022-11-30T17:28:55.888Z,2.90
2022-11-30T17:31:22.956Z,4.37
2022-11-30T17:33:49.674Z,2.83
2022-11-30T17:36:18.803Z,6.55
2022-11-30T17:38:45.636Z,7.10
2022-11-30T17:41:19.489Z,10.77
2022-11-30T17:43:47.445Z,3.47
2022-11-30T17:46:16.624Z,2.85
2022-11-30T17:48:44.039Z,4.13
2022-11-30T17:51:11.982Z,3.10
2022-11-30T17:53:39.749Z,4.97
2022-11-30T17:56:12.301Z,5.28
2022-11-30T17:58:43.441Z,2.72
2022-11-30T18:01:19.255Z,2.00
2022-11-30T18:03:46.395Z,3.17
2022-11-30T18:06:14.431Z,7.28
2022-11-30T18:08:40.988Z,8.10
2022-11-30T18:11:13.012Z,6.47
2022-11-30T18:13:40.213Z,5.07
2022-11-30T18:16:20.709Z,7.88
2022-11-30T18:18:48.697Z,6.07
2022-11-30T18:21:20.276Z,7.75
2022-11-30T18:23:47.462Z,3.67
2022-11-30T18:26:16.336Z,2.63
2022-11-30T18:28:43.404Z,3.30
2022-11-30T18:31:10.308Z,3.25
2022-11-30T18:33:37.916Z,4.20
2022-11-30T18:36:08.912Z,3.95
2022-11-30T18:38:38.340Z,3.80
2022-11-30T18:41:05.333Z,3.53
2022-11-30T18:43:33.473Z,4.47
2022-11-30T18:46:04.826Z,8.05
2022-11-30T18:48:31.700Z,3.30
2022-11-30T18:50:58.430Z,5.28
2022-11-30T18:53:25.002Z,5.30
2022-11-30T18:55:51.828Z,6.00
2022-11-30T18:58:18.428Z,2.47
2022-11-30T19:00:45.029Z,8.30
2022-11-30T19:03:11.534Z,6.33
2022-11-30T19:05:39.785Z,3.87
2022-11-30T19:08:11.423Z,3.97
2022-11-30T19:10:39.746Z,3.03
2022-11-30T19:13:07.750Z,3.35
2022-11-30T19:15:41.255Z,4.07
2022-11-30T19:18:10.723Z,4.38
2022-11-30T19:20:39.193Z,4.05
2022-11-30T19:23:05.959Z,3.63
2022-11-30T19:25:32.755Z,2.72
2022-11-30T19:27:59.392Z,2.70
2022-11-30T19:30:26.477Z,2.33
2022-11-30T19:32:53.730Z,2.95
2022-11-30T19:35:21.099Z,4.35
2022-11-30T19:40:14.198Z,3.05
2022-11-30T19:42:40.752Z,2.75
2022-11-30T19:45:07.982Z,2.70
2022-11-30T19:47:34.888Z,3.92
2022-11-30T19:50:02.026Z,5.60
2022-11-30T19:52:28.532Z,7.20
2022-11-30T19:54:55.130Z,3.30
2022-11-30T19:57:21.962Z,2.85
2022-11-30T19:59:48.624Z,3.80
2022-11-30T20:02:15.244Z,5.95
2022-11-30T20:04:41.856Z,5.13
2022-11-30T20:07:08.416Z,4.47
2022-11-30T20:09:34.948Z,3.00
2022-11-30T20:12:01.510Z,3.95
2022-11-30T20:14:27.996Z,4.03
2022-11-30T20:16:54.534Z,7.90
2022-11-30T20:19:21.205Z,7.87
2022-11-30T20:21:48.375Z,2.67
2022-11-30T20:24:15.484Z,6.53
2022-11-30T20:26:43.896Z,3.97
2022-11-30T20:29:15.626Z,4.07
2022-11-30T20:31:43.428Z,3.50
2022-11-30T20:34:10.387Z,6.03
2022-11-30T20:36:37.903Z,28.58
2022-11-30T20:39:05.942Z,10.60
2022-11-30T20:41:32.633Z,7.03
2022-11-30T20:43:59.184Z,5.18
2022-11-30T20:46:34.871Z,4.50
2022-11-30T20:49:03.443Z,2.63
2022-11-30T20:51:33.006Z,3.00
2022-11-30T20:54:05.638Z,3.10
2022-11-30T20:56:37.236Z,2.95
2022-11-30T20:59:06.773Z,3.00
2022-11-30T21:01:33.830Z,4.45
2022-11-30T21:04:01.238Z,2.42
2022-11-30T21:08:55.932Z,5.30
2022-11-30T21:11:22.800Z,5.57
2022-11-30T21:13:51.060Z,5.32
2022-11-30T21:16:26.927Z,6.85
2022-11-30T21:18:55.181Z,3.95
2022-11-30T21:21:23.935Z,4.78
2022-11-30T21:23:51.141Z,7.47
2022-11-30T21:26:27.599Z,2.78
2022-11-30T21:28:56.572Z,3.42
2022-11-30T21:31:23.624Z,3.67
2022-11-30T21:33:53.665Z,4.22
2022-11-30T21:36:22.145Z,2.83
2022-11-30T21:38:54.739Z,4.95
2022-11-30T21:41:22.988Z,5.93
2022-11-30T21:43:49.823Z,2.85
2022-11-30T21:46:19.231Z,3.78
2022-11-30T21:48:48.358Z,4.15
2022-11-30T21:51:16.373Z,9.85
2022-11-30T21:53:49.670Z,6.75
2022-11-30T21:56:19.385Z,5.20
2022-11-30T21:58:47.504Z,4.07
2022-11-30T22:01:17.271Z,9.13
2022-11-30T22:03:44.288Z,4.97
2022-11-30T22:06:13.367Z,5.85
2022-11-30T22:08:40.983Z,8.90
2022-11-30T22:11:11.209Z,4.15
2022-11-30T22:13:38.729Z,5.82
2022-11-30T22:16:11.108Z,4.97
2022-11-30T22:18:38.223Z,3.33
2022-11-30T22:21:13.116Z,5.53
2022-11-30T22:23:43.440Z,5.40
2022-11-30T22:26:17.895Z,5.15
2022-11-30T22:28:50.307Z,4.55
2022-11-30T22:31:18.993Z,6.45
2022-11-30T22:33:46.563Z,4.97
2022-11-30T22:36:18.004Z,3.47
2022-11-30T22:38:45.044Z,7.65
2022-11-30T22:41:17.067Z,5.57
2022-11-30T22:43:46.114Z,5.25
2022-11-30T22:46:33.205Z,4.72
2022-11-30T22:49:01.152Z,4.65
2022-11-30T22:51:28.944Z,4.57
2022-11-30T22:53:56.599Z,6.57
2022-11-30T22:56:28.657Z,2.72
2022-11-30T22:58:57.152Z,3.42
2022-11-30T23:01:26.047Z,6.45
2022-11-30T23:03:54.616Z,5.50
2022-11-30T23:06:22.038Z,3.78
2022-11-30T23:11:19.644Z,5.28
2022-11-30T23:13:46.599Z,2.80
2022-11-30T23:16:14.481Z,3.63
2022-11-30T23:18:43.626Z,5.60
2022-11-30T23:21:38.890Z,3.60
2022-11-30T23:24:08.727Z,9.27
2022-11-30T23:26:37.794Z,3.42
2022-11-30T23:29:06.881Z,1.95
2022-11-30T23:31:36.690Z,5.75
2022-11-30T23:34:09.649Z,4.57
2022-11-30T23:36:36.799Z,3.88
2022-11-30T23:39:08.289Z,6.07
2022-11-30T23:41:34.983Z,4.65
2022-11-30T23:44:02.267Z,3.28
2022-11-30T23:46:29.432Z,5.72
2022-11-30T23:48:56.349Z,2.42
2022-11-30T23:51:23.787Z,1.83
2022-11-30T23:53:50.365Z,1.80
2022-11-30T23:56:18.972Z,2.43
2022-11-30T23:58:45.563Z,3.15
